Salt Lake City, Utah
Traffic Map
Current Weather Conditions
Salt Lake City, Utah
Scattered Clouds
Scattered Clouds
69°
Feels Like: 69°
Wind Chill: 69° Ceiling: Unl
Heat Index: 69° Visibility: 10mi
Dew Point: 47° Wind: 10mph
Humidity: 45% Direction: 110° (ESE)
Pressure: 30.08in Gusts: 0mph
Raw Report DataKSLC 210553Z 11009KT 10SM FEW100 SCT180 21/08 A3008 RMK AO2 SLP137 T02060083 10278 20200 53004
Traffic Incident Summary
Active as of:
Severity:
Category:
InformationThere was an issue retrieving the traffic information for this location. Please try a different location or try again shortly.
Advertisements
Track Severe Weather on mobile